Yaak, Montana
Current Conditions -  °F | °C
As of 3:55 AM on Friday 19 Dec 2014 (Local Time) from K65S Reporting Station
Haze Haze  
Wind Chill: 36°   Ceiling: 2800
Heat Index: 36°   Visibility: 3mi
Dew Point: 34°   Wind: 0mph
Humidity: 93%   Direction: NA
Pressure: 29.92"   Gusts: NA
Location:  48.7903°N, 115.78°W
Report Text: K65S 191055Z AUTO 00000KT 3SM BR OVC028 02/01 A2992 RMK AO2
Loading
Personal Weather Stations






























Interactive Weather Map New forecast layout! Learn more

10-Day Weather Forecast

Advertisements
Track Severe Weather on mobile